Strona główna
METAR-TAF:

METAR-TAF

Lotnisko :

Port lotniczy Reunion

Saint-Denis, Reunion

Szerokość geograficzna: 20-53S, Długość geograficzna: 055-31E, wysokość: 21 m

Aktualna obserwacja pogody

Raport powstał 29 minut temu, godzina 18:00 UTC
Wiatr 6 kt od południe
Temperatura 22°C
Wilgotność 78%
Ciśnienie 1020 hPa
Widzialność 10 km lub więcej

METAR: FMEE 191800Z AUTO 18006KT 9999 OVC070/// 22/18 Q1020 NOSIG

czas: 22:29 (18:29 UTC)

Prognoza

Raport powstał 1 godzina i 29 minut temu, godzina 17:00 UTC
Prognoza ważna od 19 godzina 18 UTC do 20 godzina 24 UTC
Wiatr 5 kt od południe
Widzialność 10 km lub więcej
Rozproszone chmury na wysokości 3000 ft
Stopniowe zmiany
od 20 godzina 04 UTC do 20 godzina 06 UTC
Wiatr 10 kt od wschód
Stopniowe zmiany
od 20 godzina 14 UTC do 20 godzina 16 UTC
Wiatr 5 kt od południe

TAF: FMEE 191700Z 1918/2024 17005KT 9999 SCT030 BECMG 2004/2006 09010KT BECMG 2014/2016 17005KT

Obserwacja i prognoza pogody dla ponad 4000 lotnisk (raport METAR i TAF).

Dostępne stacje oznaczono żółtymi i czerwonymi punktami na mapie.

Najedź kursorem aby zobaczyć nazwę stacji.

Kliknij aby zobaczyć obserwacje i prognozy pogody.

Aby zmienić mapę: kliknij na zielony przycisk z czarnym krzyżykiem, aby powiększyć; na zielony przycisk z myślnikiem, aby pomniejszyć; na zielone strzałki, aby przejść do map sąsiednich.


METAR-TAF: